Pelkie, MI (49958)

10:01 PM EDT on July 12, 2014 (GMT -0400)
RAWS PELKIE MI US (MPIEM4) Elev 759 ft | 46.78 °N, 88.66 °W | Change Station

Current weather conditions updated 48 minutes ago

Clear
Clear
67 °F
Feels Like 67 °F
N
0
Wind Variable Wind from North
Gusts 3.0 mph

Tomorrow is forecast to be Much Cooler than today.

Today
High -- | Low -- °F
--% Chance of Precip.
Yesterday
High -- | Low -- °F
Precip. -- in
6:12 AM 9:46 PM
Waxing Gibbous, 99% visible
Pressure 29.82 in
Visibility 10.0 miles
Clouds Clear
Dew Point 63 °F
Humidity 88%
Rainfall 0.00 in
Snow Depth Not available.
UV 0 out of 12
Pollen 2.10 out of 12
Air Quality Not available.
Flu Activity Sporadic
METAR KCMX 130153Z AUTO 00000KT 10SM CLR 17/13 A2983 RMK AO2 SLP098 T01720128

More Conditions Fewer Conditions

Pressure 29.82 in
Visibility 10.0 miles
Clouds Clear
Dew Point 63 °F
Humidity 88%
Rainfall 0.00 in
Snow Depth Not available.
UV 0 out of 12
Pollen 2.10 out of 12
Air Quality Not available.
Flu Activity Sporadic
METAR KCMX 130153Z AUTO 00000KT 10SM CLR 17/13 A2983 RMK AO2 SLP098 T01720128

More Conditions Fewer Conditions

10-Day Weather Forecast

Almanac

Astronomy

Jul. 12, 2014 Rise Set
Actual Time 6:12 AM EDT 9:46 PM EDT
Civil Twilight 5:34 AM EDT 10:24 PM EDT
Nautical Twilight 4:44 AM EDT 11:15 PM EDT
Astronomical Twilight 3:35 AM EDT 12:23 AM EDT
Moon 9:41 PM EDT (7/12) 6:37 AM EDT (7/12)
Length of Visible Light 16h 50m
Length of Day
15h 33m
Tomorrow will be 1m 37s shorter.
Waxing Gibbous, 99% of the Moon is Illuminated
Today
Waxing Gibbous
Jul 18
Last Quarter
Jul 26
New
Aug 3
First Quarter
Aug 10
Full

Today's Extremes

State Highs State Lows

Community

WunderPhotos

Upload Photos

1,733,044 photos uploaded!

WunderBlogs® & News

Nearby

Snow Depth

Station Depth Elevation
No new snow has been reported.

Earthquake Activity

City Distance Mag. Time & Date
No recent earthquake activity has been reported nearby.
Minimum magnitude displayed is 2.5.

Coastal Water Temperatures

Place Temperature
No Stations Reporting

Nearby Weather Stations

Station Location Temp. Dew Point Humidity Wind Precip. Elev Updated Type
RAWS PELKIE MI, Pelkie, MI 67 °F 63 °F 88% North  at  0 mph 0.00 in / hr 759 ft 9:13 PM EDT MADIS
Otter Lake, Tapiola, MI 63.0 °F 60 °F 90% East  at  0.0 mph 0.00 in / hr 604 ft 10:01 PM EDT Rapid Fire
Mooselake Farm, Chassell, MI 63.9 °F 61 °F 90% WNW  at  0.0 mph - / hr 935 ft 9:48 PM EDT Normal
RAWS KENTON MI, Nisula, MI 64 °F 61 °F 90% North  at  0 mph 0.00 in / hr 1262 ft 8:56 PM EDT MADIS
Keweenaw Bay West Shore, Baraga, MI 58.6 °F 56 °F 92% ESE  at  0.4 mph 0.00 in / hr 640 ft 9:33 PM EDT Normal
Gierke Blueberry Farm, Chassel, MI 60.9 °F 58 °F 90% North  at  0.0 mph 0.00 in / hr 730 ft 9:56 PM EDT Normal
Skanee, MI, Skanee, MI 63.1 °F 52 °F 67% SE  at  0.0 mph 0.00 in / hr 725 ft 9:34 PM EDT Rapid Fire

Show More Stations Show Fewer Stations